sensor_id;sensor_type;location;lat;lon;timestamp;temperature;humidity
22678;DHT22;26259;50.214;18.620;2023-02-01T00:00:53;2.60;99.90
22678;DHT22;26259;50.214;18.620;2023-02-01T00:03:19;2.50;99.90
22678;DHT22;26259;50.214;18.620;2023-02-01T00:05:57;2.40;99.90
22678;DHT22;26259;50.214;18.620;2023-02-01T00:08:23;2.40;99.90
22678;DHT22;26259;50.214;18.620;2023-02-01T00:10:48;2.40;99.90
22678;DHT22;26259;50.214;18.620;2023-02-01T00:13:22;2.50;99.90
22678;DHT22;26259;50.214;18.620;2023-02-01T00:15:48;2.50;99.90
22678;DHT22;26259;50.214;18.620;2023-02-01T00:18:13;2.50;99.90
22678;DHT22;26259;50.214;18.620;2023-02-01T00:20:39;2.50;99.90
22678;DHT22;26259;50.214;18.620;2023-02-01T00:23:10;2.50;99.90
22678;DHT22;26259;50.214;18.620;2023-02-01T00:25:35;2.50;99.90
22678;DHT22;26259;50.214;18.620;2023-02-01T00:28:01;2.50;99.90
22678;DHT22;26259;50.214;18.620;2023-02-01T00:30:26;2.50;99.90
22678;DHT22;26259;50.214;18.620;2023-02-01T00:32:52;2.60;99.90
22678;DHT22;26259;50.214;18.620;2023-02-01T00:35:17;2.70;99.90
22678;DHT22;26259;50.214;18.620;2023-02-01T00:37:43;2.80;99.90
22678;DHT22;26259;50.214;18.620;2023-02-01T00:40:09;2.90;99.90
22678;DHT22;26259;50.214;18.620;2023-02-01T00:42:35;2.90;99.90
22678;DHT22;26259;50.214;18.620;2023-02-01T00:45:01;3.00;99.90
22678;DHT22;26259;50.214;18.620;2023-02-01T00:47:26;3.10;99.90
22678;DHT22;26259;50.214;18.620;2023-02-01T00:49:52;3.20;99.90
22678;DHT22;26259;50.214;18.620;2023-02-01T00:52:17;3.30;99.90
22678;DHT22;26259;50.214;18.620;2023-02-01T00:54:43;3.40;99.90
22678;DHT22;26259;50.214;18.620;2023-02-01T00:57:08;3.50;99.90
22678;DHT22;26259;50.214;18.620;2023-02-01T00:59:34;3.70;99.90
22678;DHT22;26259;50.214;18.620;2023-02-01T01:01:59;3.80;99.90
22678;DHT22;26259;50.214;18.620;2023-02-01T01:04:25;3.80;99.90
22678;DHT22;26259;50.214;18.620;2023-02-01T01:06:50;3.90;99.90
22678;DHT22;26259;50.214;18.620;2023-02-01T01:09:16;3.80;99.90
22678;DHT22;26259;50.214;18.620;2023-02-01T01:11:42;3.40;99.90
22678;DHT22;26259;50.214;18.620;2023-02-01T01:14:09;3.00;99.90
22678;DHT22;26259;50.214;18.620;2023-02-01T01:16:35;2.70;99.90
22678;DHT22;26259;50.214;18.620;2023-02-01T01:19:01;2.40;99.90
22678;DHT22;26259;50.214;18.620;2023-02-01T01:21:29;2.10;99.90
22678;DHT22;26259;50.214;18.620;2023-02-01T01:23:55;2.00;99.90
22678;DHT22;26259;50.214;18.620;2023-02-01T01:26:24;1.80;99.90
22678;DHT22;26259;50.214;18.620;2023-02-01T01:28:50;1.60;99.90
22678;DHT22;26259;50.214;18.620;2023-02-01T01:31:17;1.50;99.90
22678;DHT22;26259;50.214;18.620;2023-02-01T01:33:43;1.40;99.90
22678;DHT22;26259;50.214;18.620;2023-02-01T01:36:11;1.30;99.90
22678;DHT22;26259;50.214;18.620;2023-02-01T01:38:37;1.30;99.90
22678;DHT22;26259;50.214;18.620;2023-02-01T01:41:04;1.30;99.90
22678;DHT22;26259;50.214;18.620;2023-02-01T01:46:51;1.20;99.90
22678;DHT22;26259;50.214;18.620;2023-02-01T01:49:22;1.20;99.90
22678;DHT22;26259;50.214;18.620;2023-02-01T01:51:52;1.20;99.90
22678;DHT22;26259;50.214;18.620;2023-02-01T01:54:50;1.10;99.90
22678;DHT22;26259;50.214;18.620;2023-02-01T01:57:17;1.10;99.90
22678;DHT22;26259;50.214;18.620;2023-02-01T01:59:48;1.10;99.90
22678;DHT22;26259;50.214;18.620;2023-02-01T02:02:15;1.10;99.90
22678;DHT22;26259;50.214;18.620;2023-02-01T02:04:42;1.10;99.90
22678;DHT22;26259;50.214;18.620;2023-02-01T02:07:14;1.10;99.90
22678;DHT22;26259;50.214;18.620;2023-02-01T02:09:42;1.10;99.90
22678;DHT22;26259;50.214;18.620;2023-02-01T02:12:09;1.10;99.90
22678;DHT22;26259;50.214;18.620;2023-02-01T02:14:34;1.10;99.90
22678;DHT22;26259;50.214;18.620;2023-02-01T02:17:14;1.10;99.90
22678;DHT22;26259;50.214;18.620;2023-02-01T02:25:26;1.10;99.90
22678;DHT22;26259;50.214;18.620;2023-02-01T02:35:55;1.10;99.90
22678;DHT22;26259;50.214;18.620;2023-02-01T02:41:14;1.10;99.90
22678;DHT22;26259;50.214;18.620;2023-02-01T02:44:18;1.10;99.90
22678;DHT22;26259;50.214;18.620;2023-02-01T02:47:16;1.10;99.90
22678;DHT22;26259;50.214;18.620;2023-02-01T02:55:56;1.20;99.90
22678;DHT22;26259;50.214;18.620;2023-02-01T02:58:42;1.20;99.90
22678;DHT22;26259;50.214;18.620;2023-02-01T03:01:28;1.30;99.90
22678;DHT22;26259;50.214;18.620;2023-02-01T03:04:13;1.30;99.90
22678;DHT22;26259;50.214;18.620;2023-02-01T03:06:43;1.30;99.90
22678;DHT22;26259;50.214;18.620;2023-02-01T03:09:31;1.30;99.90
22678;DHT22;26259;50.214;18.620;2023-02-01T03:12:02;1.30;99.90
22678;DHT22;26259;50.214;18.620;2023-02-01T03:14:52;1.40;99.90
22678;DHT22;26259;50.214;18.620;2023-02-01T03:17:27;1.40;99.90
22678;DHT22;26259;50.214;18.620;2023-02-01T03:19:55;1.40;99.90
22678;DHT22;26259;50.214;18.620;2023-02-01T03:22:27;1.40;99.90
22678;DHT22;26259;50.214;18.620;2023-02-01T03:25:01;1.40;99.90
22678;DHT22;26259;50.214;18.620;2023-02-01T03:27:34;1.40;99.90
22678;DHT22;26259;50.214;18.620;2023-02-01T03:30:21;1.40;99.90
22678;DHT22;26259;50.214;18.620;2023-02-01T03:32:50;1.40;99.90
22678;DHT22;26259;50.214;18.620;2023-02-01T03:41:03;1.20;99.90
22678;DHT22;26259;50.214;18.620;2023-02-01T03:43:39;1.30;99.90
22678;DHT22;26259;50.214;18.620;2023-02-01T03:46:10;1.20;99.90
22678;DHT22;26259;50.214;18.620;2023-02-01T03:48:39;1.20;99.90
22678;DHT22;26259;50.214;18.620;2023-02-01T03:51:07;1.30;99.90
22678;DHT22;26259;50.214;18.620;2023-02-01T03:53:35;1.20;99.90
22678;DHT22;26259;50.214;18.620;2023-02-01T03:56:02;1.20;99.90
22678;DHT22;26259;50.214;18.620;2023-02-01T03:58:28;1.20;99.90
22678;DHT22;26259;50.214;18.620;2023-02-01T04:00:56;1.10;99.90
22678;DHT22;26259;50.214;18.620;2023-02-01T04:03:22;1.10;99.90
22678;DHT22;26259;50.214;18.620;2023-02-01T04:05:51;1.10;99.90
22678;DHT22;26259;50.214;18.620;2023-02-01T04:08:18;1.10;99.90
22678;DHT22;26259;50.214;18.620;2023-02-01T04:10:44;1.10;99.90
22678;DHT22;26259;50.214;18.620;2023-02-01T04:13:10;1.20;99.90
22678;DHT22;26259;50.214;18.620;2023-02-01T04:15:36;1.20;99.90
22678;DHT22;26259;50.214;18.620;2023-02-01T04:18:01;1.20;99.90
22678;DHT22;26259;50.214;18.620;2023-02-01T04:20:27;1.30;99.90
22678;DHT22;26259;50.214;18.620;2023-02-01T04:22:53;1.30;99.90
22678;DHT22;26259;50.214;18.620;2023-02-01T04:25:19;1.30;99.90
22678;DHT22;26259;50.214;18.620;2023-02-01T04:27:44;1.30;99.90
22678;DHT22;26259;50.214;18.620;2023-02-01T04:30:11;1.30;99.90
22678;DHT22;26259;50.214;18.620;2023-02-01T04:32:37;1.20;99.90
22678;DHT22;26259;50.214;18.620;2023-02-01T04:35:03;1.30;99.90
22678;DHT22;26259;50.214;18.620;2023-02-01T04:37:29;1.30;99.90
22678;DHT22;26259;50.214;18.620;2023-02-01T04:39:55;1.30;99.90
22678;DHT22;26259;50.214;18.620;2023-02-01T04:42:20;1.20;99.90
22678;DHT22;26259;50.214;18.620;2023-02-01T04:44:46;1.20;99.90
22678;DHT22;26259;50.214;18.620;2023-02-01T04:47:11;1.10;99.90
22678;DHT22;26259;50.214;18.620;2023-02-01T04:49:37;1.10;99.90
22678;DHT22;26259;50.214;18.620;2023-02-01T04:52:03;1.10;99.90
22678;DHT22;26259;50.214;18.620;2023-02-01T04:54:28;1.10;99.90
22678;DHT22;26259;50.214;18.620;2023-02-01T04:56:54;1.20;99.90
22678;DHT22;26259;50.214;18.620;2023-02-01T04:59:19;1.30;99.90
22678;DHT22;26259;50.214;18.620;2023-02-01T05:01:45;1.20;99.90
22678;DHT22;26259;50.214;18.620;2023-02-01T05:04:11;1.40;99.90
22678;DHT22;26259;50.214;18.620;2023-02-01T05:06:37;1.40;99.90
22678;DHT22;26259;50.214;18.620;2023-02-01T05:09:03;1.40;99.90
22678;DHT22;26259;50.214;18.620;2023-02-01T05:11:28;1.40;99.90
22678;DHT22;26259;50.214;18.620;2023-02-01T05:14:12;1.40;99.90
22678;DHT22;26259;50.214;18.620;2023-02-01T05:16:38;1.40;99.90
22678;DHT22;26259;50.214;18.620;2023-02-01T05:19:04;1.50;99.90
22678;DHT22;26259;50.214;18.620;2023-02-01T05:21:29;1.50;99.90
22678;DHT22;26259;50.214;18.620;2023-02-01T05:23:55;1.50;99.90
22678;DHT22;26259;50.214;18.620;2023-02-01T05:26:39;1.50;99.90
22678;DHT22;26259;50.214;18.620;2023-02-01T05:29:05;1.60;99.90
22678;DHT22;26259;50.214;18.620;2023-02-01T05:31:31;1.50;99.90
22678;DHT22;26259;50.214;18.620;2023-02-01T05:33:57;1.60;99.90
22678;DHT22;26259;50.214;18.620;2023-02-01T05:36:22;1.50;99.90
22678;DHT22;26259;50.214;18.620;2023-02-01T05:38:48;1.60;99.90
22678;DHT22;26259;50.214;18.620;2023-02-01T05:41:14;1.60;99.90
22678;DHT22;26259;50.214;18.620;2023-02-01T05:43:39;1.60;99.90
22678;DHT22;26259;50.214;18.620;2023-02-01T05:46:05;1.60;99.90
22678;DHT22;26259;50.214;18.620;2023-02-01T05:48:30;1.60;99.90
22678;DHT22;26259;50.214;18.620;2023-02-01T05:50:56;1.60;99.90
22678;DHT22;26259;50.214;18.620;2023-02-01T05:53:22;1.70;99.90
22678;DHT22;26259;50.214;18.620;2023-02-01T05:55:47;1.70;99.90
22678;DHT22;26259;50.214;18.620;2023-02-01T05:58:13;1.70;99.90
22678;DHT22;26259;50.214;18.620;2023-02-01T06:00:39;1.70;99.90
22678;DHT22;26259;50.214;18.620;2023-02-01T06:03:05;1.80;99.90
22678;DHT22;26259;50.214;18.620;2023-02-01T06:05:31;1.80;99.90
22678;DHT22;26259;50.214;18.620;2023-02-01T06:07:56;1.80;99.90
22678;DHT22;26259;50.214;18.620;2023-02-01T06:10:22;1.80;99.90
22678;DHT22;26259;50.214;18.620;2023-02-01T06:12:48;1.90;99.90
22678;DHT22;26259;50.214;18.620;2023-02-01T06:15:14;1.90;99.90
22678;DHT22;26259;50.214;18.620;2023-02-01T06:17:45;1.90;99.90
22678;DHT22;26259;50.214;18.620;2023-02-01T06:20:12;1.90;99.90
22678;DHT22;26259;50.214;18.620;2023-02-01T06:22:38;2.00;99.90
22678;DHT22;26259;50.214;18.620;2023-02-01T06:25:06;2.00;99.90
22678;DHT22;26259;50.214;18.620;2023-02-01T06:27:32;2.00;99.90
22678;DHT22;26259;50.214;18.620;2023-02-01T06:29:58;2.10;99.90
22678;DHT22;26259;50.214;18.620;2023-02-01T06:32:24;2.00;99.90
22678;DHT22;26259;50.214;18.620;2023-02-01T06:34:49;2.10;99.90
22678;DHT22;26259;50.214;18.620;2023-02-01T06:37:15;2.00;99.90
22678;DHT22;26259;50.214;18.620;2023-02-01T06:39:41;2.00;99.90
22678;DHT22;26259;50.214;18.620;2023-02-01T06:42:06;2.00;99.90
22678;DHT22;26259;50.214;18.620;2023-02-01T06:44:32;2.00;99.90
22678;DHT22;26259;50.214;18.620;2023-02-01T06:46:57;2.10;99.90
22678;DHT22;26259;50.214;18.620;2023-02-01T06:49:23;2.10;99.90
22678;DHT22;26259;50.214;18.620;2023-02-01T06:51:49;2.10;99.90
22678;DHT22;26259;50.214;18.620;2023-02-01T06:54:15;2.10;99.90
22678;DHT22;26259;50.214;18.620;2023-02-01T06:56:40;2.10;99.90
22678;DHT22;26259;50.214;18.620;2023-02-01T06:59:07;2.10;99.90
22678;DHT22;26259;50.214;18.620;2023-02-01T07:01:33;2.00;99.90
22678;DHT22;26259;50.214;18.620;2023-02-01T07:03:59;2.10;99.90
22678;DHT22;26259;50.214;18.620;2023-02-01T07:06:25;2.00;99.90
22678;DHT22;26259;50.214;18.620;2023-02-01T07:08:50;2.00;99.90
22678;DHT22;26259;50.214;18.620;2023-02-01T07:11:18;2.10;99.90
22678;DHT22;26259;50.214;18.620;2023-02-01T07:13:44;2.10;99.90
22678;DHT22;26259;50.214;18.620;2023-02-01T07:16:16;2.10;99.90
22678;DHT22;26259;50.214;18.620;2023-02-01T07:18:41;2.10;99.90
22678;DHT22;26259;50.214;18.620;2023-02-01T07:21:07;2.10;99.90
22678;DHT22;26259;50.214;18.620;2023-02-01T07:23:33;2.10;99.90
22678;DHT22;26259;50.214;18.620;2023-02-01T07:26:01;2.20;99.90
22678;DHT22;26259;50.214;18.620;2023-02-01T07:28:30;2.20;99.90
22678;DHT22;26259;50.214;18.620;2023-02-01T07:31:03;2.20;99.90
22678;DHT22;26259;50.214;18.620;2023-02-01T07:33:28;2.20;99.90
22678;DHT22;26259;50.214;18.620;2023-02-01T07:35:54;2.20;99.90
22678;DHT22;26259;50.214;18.620;2023-02-01T07:38:20;2.30;99.90
22678;DHT22;26259;50.214;18.620;2023-02-01T07:40:47;2.30;99.90
22678;DHT22;26259;50.214;18.620;2023-02-01T07:43:12;2.30;99.90
22678;DHT22;26259;50.214;18.620;2023-02-01T07:45:38;2.40;99.90
22678;DHT22;26259;50.214;18.620;2023-02-01T07:48:04;2.40;99.90
22678;DHT22;26259;50.214;18.620;2023-02-01T07:50:30;2.40;99.90
22678;DHT22;26259;50.214;18.620;2023-02-01T07:52:57;2.40;99.90
22678;DHT22;26259;50.214;18.620;2023-02-01T07:55:23;2.40;99.90
22678;DHT22;26259;50.214;18.620;2023-02-01T07:57:50;2.40;99.90
22678;DHT22;26259;50.214;18.620;2023-02-01T08:00:15;2.40;99.90
22678;DHT22;26259;50.214;18.620;2023-02-01T08:03:00;2.40;99.90
22678;DHT22;26259;50.214;18.620;2023-02-01T08:05:26;2.40;99.90
22678;DHT22;26259;50.214;18.620;2023-02-01T08:07:52;2.40;99.90
22678;DHT22;26259;50.214;18.620;2023-02-01T08:10:18;2.40;99.90
22678;DHT22;26259;50.214;18.620;2023-02-01T08:12:45;2.50;99.90
22678;DHT22;26259;50.214;18.620;2023-02-01T08:15:17;2.50;99.90
22678;DHT22;26259;50.214;18.620;2023-02-01T08:17:48;2.50;99.90
22678;DHT22;26259;50.214;18.620;2023-02-01T08:20:14;2.60;99.90
22678;DHT22;26259;50.214;18.620;2023-02-01T08:22:39;2.60;99.90
22678;DHT22;26259;50.214;18.620;2023-02-01T08:25:06;2.80;99.90
22678;DHT22;26259;50.214;18.620;2023-02-01T08:27:35;2.80;99.90
22678;DHT22;26259;50.214;18.620;2023-02-01T08:30:01;2.80;99.90
22678;DHT22;26259;50.214;18.620;2023-02-01T08:32:27;2.80;99.90
22678;DHT22;26259;50.214;18.620;2023-02-01T08:34:52;2.90;99.90
22678;DHT22;26259;50.214;18.620;2023-02-01T08:37:18;2.90;99.90
22678;DHT22;26259;50.214;18.620;2023-02-01T08:39:43;2.90;99.90
22678;DHT22;26259;50.214;18.620;2023-02-01T08:42:11;3.00;99.90
22678;DHT22;26259;50.214;18.620;2023-02-01T08:44:55;3.00;99.90
22678;DHT22;26259;50.214;18.620;2023-02-01T08:47:21;3.00;99.90
22678;DHT22;26259;50.214;18.620;2023-02-01T08:49:47;3.10;99.90
22678;DHT22;26259;50.214;18.620;2023-02-01T08:52:12;3.10;99.90
22678;DHT22;26259;50.214;18.620;2023-02-01T08:54:38;3.10;99.90
22678;DHT22;26259;50.214;18.620;2023-02-01T08:57:06;3.20;99.90
22678;DHT22;26259;50.214;18.620;2023-02-01T08:59:32;3.20;99.90
22678;DHT22;26259;50.214;18.620;2023-02-01T09:01:57;3.20;99.90
22678;DHT22;26259;50.214;18.620;2023-02-01T09:04:23;3.20;99.90
22678;DHT22;26259;50.214;18.620;2023-02-01T09:06:48;3.30;99.90
22678;DHT22;26259;50.214;18.620;2023-02-01T09:09:14;3.30;99.90
22678;DHT22;26259;50.214;18.620;2023-02-01T09:11:40;3.30;99.90
22678;DHT22;26259;50.214;18.620;2023-02-01T09:14:05;3.30;99.90
22678;DHT22;26259;50.214;18.620;2023-02-01T09:16:31;3.40;99.90
22678;DHT22;26259;50.214;18.620;2023-02-01T09:18:57;3.50;99.90
22678;DHT22;26259;50.214;18.620;2023-02-01T09:21:23;3.60;99.90
22678;DHT22;26259;50.214;18.620;2023-02-01T09:23:51;3.70;99.90
22678;DHT22;26259;50.214;18.620;2023-02-01T09:26:16;3.70;99.90
22678;DHT22;26259;50.214;18.620;2023-02-01T09:28:42;3.80;99.90
22678;DHT22;26259;50.214;18.620;2023-02-01T09:31:08;3.90;99.90
22678;DHT22;26259;50.214;18.620;2023-02-01T09:33:33;3.90;99.90
22678;DHT22;26259;50.214;18.620;2023-02-01T09:36:02;4.00;99.90
22678;DHT22;26259;50.214;18.620;2023-02-01T09:38:29;4.00;99.90
22678;DHT22;26259;50.214;18.620;2023-02-01T09:40:55;4.00;99.90
22678;DHT22;26259;50.214;18.620;2023-02-01T09:43:29;4.10;99.90
22678;DHT22;26259;50.214;18.620;2023-02-01T09:46:27;4.10;99.90
22678;DHT22;26259;50.214;18.620;2023-02-01T09:48:58;4.30;99.90
22678;DHT22;26259;50.214;18.620;2023-02-01T09:51:34;4.40;99.90
22678;DHT22;26259;50.214;18.620;2023-02-01T09:54:08;4.60;99.90
22678;DHT22;26259;50.214;18.620;2023-02-01T09:56:46;4.60;99.90
22678;DHT22;26259;50.214;18.620;2023-02-01T10:01:47;4.80;99.90
22678;DHT22;26259;50.214;18.620;2023-02-01T10:04:14;4.80;99.90
22678;DHT22;26259;50.214;18.620;2023-02-01T10:09:57;4.70;99.90
22678;DHT22;26259;50.214;18.620;2023-02-01T10:12:54;4.50;99.90
22678;DHT22;26259;50.214;18.620;2023-02-01T10:24:24;4.50;99.90
22678;DHT22;26259;50.214;18.620;2023-02-01T10:27:02;4.40;99.90
22678;DHT22;26259;50.214;18.620;2023-02-01T10:29:34;4.40;99.90
22678;DHT22;26259;50.214;18.620;2023-02-01T10:32:02;4.40;99.90
22678;DHT22;26259;50.214;18.620;2023-02-01T10:34:31;4.40;99.90
22678;DHT22;26259;50.214;18.620;2023-02-01T10:37:28;4.40;99.90
22678;DHT22;26259;50.214;18.620;2023-02-01T10:39:56;4.40;99.90
22678;DHT22;26259;50.214;18.620;2023-02-01T10:42:27;4.40;99.90
22678;DHT22;26259;50.214;18.620;2023-02-01T10:44:58;4.40;99.90
22678;DHT22;26259;50.214;18.620;2023-02-01T10:47:24;4.40;99.90
22678;DHT22;26259;50.214;18.620;2023-02-01T10:50:29;4.50;99.90
22678;DHT22;26259;50.214;18.620;2023-02-01T10:53:07;4.60;99.90
22678;DHT22;26259;50.214;18.620;2023-02-01T10:58:19;4.60;99.90
22678;DHT22;26259;50.214;18.620;2023-02-01T11:00:54;4.70;99.90
22678;DHT22;26259;50.214;18.620;2023-02-01T11:06:09;4.70;99.90
22678;DHT22;26259;50.214;18.620;2023-02-01T11:08:42;4.60;99.90
22678;DHT22;26259;50.214;18.620;2023-02-01T11:11:09;4.60;99.90
22678;DHT22;26259;50.214;18.620;2023-02-01T11:13:38;4.60;99.90
22678;DHT22;26259;50.214;18.620;2023-02-01T11:16:05;4.60;99.90
22678;DHT22;26259;50.214;18.620;2023-02-01T11:18:35;4.60;99.90
22678;DHT22;26259;50.214;18.620;2023-02-01T11:21:01;4.60;99.90
22678;DHT22;26259;50.214;18.620;2023-02-01T11:23:29;4.60;99.90
22678;DHT22;26259;50.214;18.620;2023-02-01T11:25:56;4.50;99.90
22678;DHT22;26259;50.214;18.620;2023-02-01T11:28:25;4.60;99.90
22678;DHT22;26259;50.214;18.620;2023-02-01T11:30:54;4.70;99.90
22678;DHT22;26259;50.214;18.620;2023-02-01T11:33:25;4.70;99.90
22678;DHT22;26259;50.214;18.620;2023-02-01T11:35:56;4.70;99.90
22678;DHT22;26259;50.214;18.620;2023-02-01T11:38:29;4.70;99.90
22678;DHT22;26259;50.214;18.620;2023-02-01T11:40:58;4.80;99.90
22678;DHT22;26259;50.214;18.620;2023-02-01T11:43:36;4.90;99.90
22678;DHT22;26259;50.214;18.620;2023-02-01T11:46:03;5.00;99.90
22678;DHT22;26259;50.214;18.620;2023-02-01T11:48:32;5.00;99.90
22678;DHT22;26259;50.214;18.620;2023-02-01T11:53:25;5.10;99.90
22678;DHT22;26259;50.214;18.620;2023-02-01T12:13:30;5.10;99.90
22678;DHT22;26259;50.214;18.620;2023-02-01T12:16:19;5.10;99.90
22678;DHT22;26259;50.214;18.620;2023-02-01T12:22:00;5.00;99.90
22678;DHT22;26259;50.214;18.620;2023-02-01T12:24:38;4.90;99.90
22678;DHT22;26259;50.214;18.620;2023-02-01T12:38:14;4.90;99.90
22678;DHT22;26259;50.214;18.620;2023-02-01T12:44:01;4.80;99.90
22678;DHT22;26259;50.214;18.620;2023-02-01T12:46:45;4.90;99.90
22678;DHT22;26259;50.214;18.620;2023-02-01T12:52:02;5.00;99.90
22678;DHT22;26259;50.214;18.620;2023-02-01T12:55:00;4.90;99.90
22678;DHT22;26259;50.214;18.620;2023-02-01T12:57:32;4.80;99.90
22678;DHT22;26259;50.214;18.620;2023-02-01T13:05:25;4.70;99.90
22678;DHT22;26259;50.214;18.620;2023-02-01T13:10:43;4.80;99.90
22678;DHT22;26259;50.214;18.620;2023-02-01T13:15:53;4.80;99.90
22678;DHT22;26259;50.214;18.620;2023-02-01T13:18:21;4.90;99.90
22678;DHT22;26259;50.214;18.620;2023-02-01T13:21:08;4.90;99.90
22678;DHT22;26259;50.214;18.620;2023-02-01T13:23:38;4.70;99.90
22678;DHT22;26259;50.214;18.620;2023-02-01T13:26:05;4.60;99.90
22678;DHT22;26259;50.214;18.620;2023-02-01T13:28:53;4.50;99.90
22678;DHT22;26259;50.214;18.620;2023-02-01T13:37:48;4.00;99.90
22678;DHT22;26259;50.214;18.620;2023-02-01T13:42:59;3.60;99.90
22678;DHT22;26259;50.214;18.620;2023-02-01T13:45:29;3.50;99.90
22678;DHT22;26259;50.214;18.620;2023-02-01T13:47:59;3.30;99.90
22678;DHT22;26259;50.214;18.620;2023-02-01T13:50:36;3.10;99.90
22678;DHT22;26259;50.214;18.620;2023-02-01T13:53:17;3.10;99.90
22678;DHT22;26259;50.214;18.620;2023-02-01T13:55:45;3.00;99.90
22678;DHT22;26259;50.214;18.620;2023-02-01T13:58:18;2.90;99.90
22678;DHT22;26259;50.214;18.620;2023-02-01T14:00:45;2.90;99.90
22678;DHT22;26259;50.214;18.620;2023-02-01T14:08:11;2.80;99.90
22678;DHT22;26259;50.214;18.620;2023-02-01T14:10:57;2.70;99.90
22678;DHT22;26259;50.214;18.620;2023-02-01T14:13:30;2.70;99.90
22678;DHT22;26259;50.214;18.620;2023-02-01T14:21:34;2.70;99.90
22678;DHT22;26259;50.214;18.620;2023-02-01T14:24:13;2.70;99.90
22678;DHT22;26259;50.214;18.620;2023-02-01T14:26:47;2.70;99.90
22678;DHT22;26259;50.214;18.620;2023-02-01T14:31:59;2.80;99.90
22678;DHT22;26259;50.214;18.620;2023-02-01T14:34:53;2.80;99.90
22678;DHT22;26259;50.214;18.620;2023-02-01T14:39:59;3.00;99.90
22678;DHT22;26259;50.214;18.620;2023-02-01T14:42:33;3.00;99.90
22678;DHT22;26259;50.214;18.620;2023-02-01T14:55:45;3.10;99.90
22678;DHT22;26259;50.214;18.620;2023-02-01T15:06:27;3.30;99.90
22678;DHT22;26259;50.214;18.620;2023-02-01T15:09:00;3.30;99.90
22678;DHT22;26259;50.214;18.620;2023-02-01T15:11:27;3.30;99.90
22678;DHT22;26259;50.214;18.620;2023-02-01T15:13:53;3.30;99.90
22678;DHT22;26259;50.214;18.620;2023-02-01T15:16:23;3.40;99.90
22678;DHT22;26259;50.214;18.620;2023-02-01T15:18:49;3.40;99.90
22678;DHT22;26259;50.214;18.620;2023-02-01T15:21:21;3.40;99.90
22678;DHT22;26259;50.214;18.620;2023-02-01T15:23:47;3.40;99.90
22678;DHT22;26259;50.214;18.620;2023-02-01T15:26:30;3.40;99.90
22678;DHT22;26259;50.214;18.620;2023-02-01T15:28:57;3.40;99.90
22678;DHT22;26259;50.214;18.620;2023-02-01T15:31:38;3.40;99.90
22678;DHT22;26259;50.214;18.620;2023-02-01T15:34:04;3.30;99.90
22678;DHT22;26259;50.214;18.620;2023-02-01T15:36:30;3.30;99.90
22678;DHT22;26259;50.214;18.620;2023-02-01T15:39:22;3.30;99.90
22678;DHT22;26259;50.214;18.620;2023-02-01T15:41:56;3.30;99.90
22678;DHT22;26259;50.214;18.620;2023-02-01T15:46:56;3.20;99.90
22678;DHT22;26259;50.214;18.620;2023-02-01T15:49:26;3.20;99.90
22678;DHT22;26259;50.214;18.620;2023-02-01T15:51:54;3.30;99.90
22678;DHT22;26259;50.214;18.620;2023-02-01T15:54:25;3.20;99.90
22678;DHT22;26259;50.214;18.620;2023-02-01T15:56:55;3.20;99.90
22678;DHT22;26259;50.214;18.620;2023-02-01T15:59:29;3.20;99.90
22678;DHT22;26259;50.214;18.620;2023-02-01T16:01:55;3.30;99.90
22678;DHT22;26259;50.214;18.620;2023-02-01T16:04:25;3.30;99.90
22678;DHT22;26259;50.214;18.620;2023-02-01T16:06:57;3.30;99.90
22678;DHT22;26259;50.214;18.620;2023-02-01T16:09:34;3.30;99.90
22678;DHT22;26259;50.214;18.620;2023-02-01T16:12:01;3.40;99.90
22678;DHT22;26259;50.214;18.620;2023-02-01T16:14:28;3.40;99.90
22678;DHT22;26259;50.214;18.620;2023-02-01T16:16:58;3.50;99.90
22678;DHT22;26259;50.214;18.620;2023-02-01T16:19:24;3.40;99.90
22678;DHT22;26259;50.214;18.620;2023-02-01T16:21:54;3.50;99.90
22678;DHT22;26259;50.214;18.620;2023-02-01T16:24:20;3.50;99.90
22678;DHT22;26259;50.214;18.620;2023-02-01T16:26:48;3.50;99.90
22678;DHT22;26259;50.214;18.620;2023-02-01T16:29:14;3.50;99.90
22678;DHT22;26259;50.214;18.620;2023-02-01T16:31:40;3.50;99.90
22678;DHT22;26259;50.214;18.620;2023-02-01T16:34:09;3.50;99.90
22678;DHT22;26259;50.214;18.620;2023-02-01T16:36:35;3.50;99.90
22678;DHT22;26259;50.214;18.620;2023-02-01T16:39:01;3.50;99.90
22678;DHT22;26259;50.214;18.620;2023-02-01T16:41:29;3.60;99.90
22678;DHT22;26259;50.214;18.620;2023-02-01T16:43:55;3.50;99.90
22678;DHT22;26259;50.214;18.620;2023-02-01T16:46:23;3.40;99.90
22678;DHT22;26259;50.214;18.620;2023-02-01T16:48:55;3.30;99.90
22678;DHT22;26259;50.214;18.620;2023-02-01T16:51:23;3.20;99.90
22678;DHT22;26259;50.214;18.620;2023-02-01T16:53:50;3.10;99.90
22678;DHT22;26259;50.214;18.620;2023-02-01T16:58:43;3.10;99.90
22678;DHT22;26259;50.214;18.620;2023-02-01T17:01:10;3.10;99.90
22678;DHT22;26259;50.214;18.620;2023-02-01T17:03:36;2.90;99.90
22678;DHT22;26259;50.214;18.620;2023-02-01T17:06:02;2.80;99.90
22678;DHT22;26259;50.214;18.620;2023-02-01T17:08:32;2.70;99.90
22678;DHT22;26259;50.214;18.620;2023-02-01T17:10:58;2.60;99.90
22678;DHT22;26259;50.214;18.620;2023-02-01T17:13:23;2.30;99.90
22678;DHT22;26259;50.214;18.620;2023-02-01T17:16:01;2.10;99.90
22678;DHT22;26259;50.214;18.620;2023-02-01T17:18:28;2.00;99.90
22678;DHT22;26259;50.214;18.620;2023-02-01T17:20:57;2.00;99.90
22678;DHT22;26259;50.214;18.620;2023-02-01T17:23:23;2.00;99.90
22678;DHT22;26259;50.214;18.620;2023-02-01T17:25:48;2.10;99.90
22678;DHT22;26259;50.214;18.620;2023-02-01T17:28:14;2.20;99.90
22678;DHT22;26259;50.214;18.620;2023-02-01T17:30:40;2.30;99.90
22678;DHT22;26259;50.214;18.620;2023-02-01T17:33:21;2.30;99.90
22678;DHT22;26259;50.214;18.620;2023-02-01T17:35:48;2.50;99.90
22678;DHT22;26259;50.214;18.620;2023-02-01T17:38:14;2.70;99.90
22678;DHT22;26259;50.214;18.620;2023-02-01T17:40:40;2.80;99.90
22678;DHT22;26259;50.214;18.620;2023-02-01T17:43:08;2.90;99.90
22678;DHT22;26259;50.214;18.620;2023-02-01T17:45:48;2.90;99.90
22678;DHT22;26259;50.214;18.620;2023-02-01T17:48:20;3.00;99.90
22678;DHT22;26259;50.214;18.620;2023-02-01T17:50:47;3.00;99.90
22678;DHT22;26259;50.214;18.620;2023-02-01T17:53:15;3.00;99.90
22678;DHT22;26259;50.214;18.620;2023-02-01T17:55:43;3.10;99.90
22678;DHT22;26259;50.214;18.620;2023-02-01T17:58:11;3.10;99.90
22678;DHT22;26259;50.214;18.620;2023-02-01T18:00:38;3.10;99.90
22678;DHT22;26259;50.214;18.620;2023-02-01T18:03:03;3.10;99.90
22678;DHT22;26259;50.214;18.620;2023-02-01T18:05:38;3.10;99.90
22678;DHT22;26259;50.214;18.620;2023-02-01T18:08:04;3.10;99.90
22678;DHT22;26259;50.214;18.620;2023-02-01T18:10:30;3.10;99.90
22678;DHT22;26259;50.214;18.620;2023-02-01T18:12:55;3.10;99.90
22678;DHT22;26259;50.214;18.620;2023-02-01T18:15:24;3.10;99.90